Terminal Aerodrome Forecast
Issued by NWS Duluth, MN

Home | Current Version | Previous Version | Text Only | Print | Product List | Glossary On
Versions: 1 2 3 4 5 6 7 8 9 10 11 12 13 14 15 16 17 18 19 20 21 22
271
FTUS43 KDLH 201908 AAA
TAFDLH
TAF AMD
KDLH 201908Z 2019/2118 04010G21KT 2SM -SN BKN009 OVC013
     FM202000 04010G19KT 2SM -RASN OVC003
     FM202200 04009KT 2SM BR VCSH OVC008
     FM210000 04006KT 3SM BR OVC009
     FM210400 33004KT 4SM BR BKN040
     FM211700 36007KT P6SM SKC=

USA.gov is the U.S. government's official web portal to all federal, state and local government web resources and services.